createdAt,value
2023-03-27T00:01:15.154Z,0.32
2023-03-27T00:03:43.903Z,0.82
2023-03-27T00:06:16.772Z,0.40
2023-03-27T00:08:47.058Z,0.50
2023-03-27T00:11:15.607Z,0.40
2023-03-27T00:13:50.751Z,0.30
2023-03-27T00:16:19.344Z,0.30
2023-03-27T00:18:47.162Z,0.50
2023-03-27T00:21:14.958Z,0.38
2023-03-27T00:23:42.682Z,0.32
2023-03-27T00:26:12.714Z,0.55
2023-03-27T00:28:40.321Z,0.40
2023-03-27T00:31:11.397Z,0.23
2023-03-27T00:33:39.424Z,0.30
2023-03-27T00:36:07.929Z,0.40
2023-03-27T00:38:35.515Z,0.30
2023-03-27T00:41:03.460Z,0.28
2023-03-27T00:43:34.764Z,0.27
2023-03-27T00:46:06.284Z,0.20
2023-03-27T00:48:37.629Z,0.10
2023-03-27T00:51:07.082Z,0.20
2023-03-27T00:53:35.018Z,0.20
2023-03-27T00:56:06.238Z,0.23
2023-03-27T00:58:40.833Z,0.10
2023-03-27T01:01:10.187Z,0.28
2023-03-27T01:03:37.990Z,0.20
2023-03-27T01:06:06.275Z,0.20
2023-03-27T01:08:37.266Z,0.30
2023-03-27T01:11:16.157Z,0.10
2023-03-27T01:13:57.792Z,0.40
2023-03-27T01:16:31.494Z,0.30
2023-03-27T01:19:09.502Z,0.20
2023-03-27T01:22:02.703Z,0.20
2023-03-27T01:24:59.178Z,0.20
2023-03-27T01:27:51.870Z,0.20
2023-03-27T01:30:26.784Z,0.20
2023-03-27T01:33:17.491Z,0.20
2023-03-27T01:36:13.369Z,0.30
2023-03-27T01:39:24.237Z,0.30
2023-03-27T01:41:57.834Z,0.50
2023-03-27T01:44:43.670Z,0.10
2023-03-27T01:47:21.711Z,0.20
2023-03-27T01:49:54.670Z,0.20
2023-03-27T01:52:26.702Z,0.28
2023-03-27T01:55:03.418Z,0.30
2023-03-27T01:57:48.901Z,0.20
2023-03-27T02:00:22.526Z,0.40
2023-03-27T02:02:55.252Z,0.30
2023-03-27T02:05:28.871Z,0.30
2023-03-27T02:08:04.126Z,0.30
2023-03-27T02:10:38.583Z,0.15
2023-03-27T02:13:10.102Z,0.10
2023-03-27T02:15:42.008Z,0.00
2023-03-27T02:18:14.280Z,0.00
2023-03-27T02:20:42.823Z,0.00
2023-03-27T02:23:10.695Z,0.00
2023-03-27T02:25:41.433Z,0.00
2023-03-27T02:28:34.105Z,0.00
2023-03-27T02:31:32.170Z,0.10
2023-03-27T02:34:24.213Z,0.00
2023-03-27T02:36:56.173Z,0.00
2023-03-27T02:39:31.809Z,0.00
2023-03-27T02:42:05.688Z,0.00
2023-03-27T02:44:46.546Z,0.10
2023-03-27T02:47:20.419Z,0.15
2023-03-27T02:49:52.626Z,0.00
2023-03-27T02:52:25.004Z,2.05
2023-03-27T02:55:04.908Z,0.27
2023-03-27T02:57:39.554Z,0.10
2023-03-27T03:00:18.621Z,0.10
2023-03-27T03:02:47.372Z,0.10
2023-03-27T03:05:20.872Z,0.17
2023-03-27T03:07:49.097Z,0.40
2023-03-27T03:10:17.763Z,0.20
2023-03-27T03:12:46.929Z,0.00
2023-03-27T03:15:14.560Z,0.00
2023-03-27T03:17:42.511Z,0.10
2023-03-27T03:20:12.824Z,0.07
2023-03-27T03:22:42.026Z,0.10
2023-03-27T03:25:11.858Z,0.20
2023-03-27T03:27:41.505Z,0.10
2023-03-27T03:30:12.164Z,0.15
2023-03-27T03:32:44.966Z,0.20
2023-03-27T03:35:13.860Z,0.25
2023-03-27T03:37:41.683Z,0.20
2023-03-27T03:40:11.988Z,0.30
2023-03-27T03:42:45.748Z,0.28
2023-03-27T03:45:15.512Z,0.47
2023-03-27T03:47:43.835Z,0.50
2023-03-27T03:50:12.253Z,0.73
2023-03-27T03:52:40.165Z,0.38
2023-03-27T03:55:10.617Z,0.30
2023-03-27T03:57:38.905Z,0.30
2023-03-27T04:00:08.572Z,0.30
2023-03-27T04:02:38.766Z,0.40
2023-03-27T04:05:09.468Z,0.30
2023-03-27T04:07:40.331Z,0.35
2023-03-27T04:10:09.625Z,0.30
2023-03-27T04:12:37.700Z,0.40
2023-03-27T04:15:06.648Z,0.77
2023-03-27T04:17:34.941Z,0.40
2023-03-27T04:20:05.799Z,0.28
2023-03-27T04:22:38.442Z,0.40
2023-03-27T04:25:07.768Z,0.40
2023-03-27T04:27:36.202Z,0.63
2023-03-27T04:30:04.340Z,0.40
2023-03-27T04:32:32.052Z,0.40
2023-03-27T04:35:00.983Z,0.27
2023-03-27T04:37:30.611Z,0.57
2023-03-27T04:40:00.318Z,0.60
2023-03-27T04:42:27.953Z,0.40
2023-03-27T04:44:56.010Z,0.85
2023-03-27T04:47:23.891Z,0.50
2023-03-27T04:49:51.811Z,0.30
2023-03-27T04:52:20.202Z,0.40
2023-03-27T04:54:49.200Z,0.30
2023-03-27T04:57:19.284Z,0.30
2023-03-27T04:59:47.277Z,0.30
2023-03-27T05:02:16.983Z,0.20
2023-03-27T05:04:45.643Z,0.20
2023-03-27T05:07:13.643Z,0.10
2023-03-27T05:09:41.529Z,0.10
2023-03-27T05:12:10.769Z,0.20
2023-03-27T05:14:38.391Z,0.20
2023-03-27T05:17:06.364Z,0.20
2023-03-27T05:19:35.158Z,0.10
2023-03-27T05:22:03.062Z,0.20
2023-03-27T05:24:30.930Z,0.20
2023-03-27T05:26:58.579Z,0.30
2023-03-27T05:29:27.674Z,0.22
2023-03-27T05:31:55.761Z,0.35
2023-03-27T05:34:24.273Z,0.28
2023-03-27T05:36:52.157Z,0.30
2023-03-27T05:39:20.006Z,0.45
2023-03-27T05:41:47.676Z,0.40
2023-03-27T05:44:15.285Z,0.63
2023-03-27T05:46:44.661Z,0.40
2023-03-27T05:49:12.296Z,0.47
2023-03-27T05:51:46.739Z,1.00
2023-03-27T05:54:15.167Z,0.60
2023-03-27T05:56:43.105Z,0.60
2023-03-27T05:59:10.752Z,0.45
2023-03-27T06:01:40.025Z,0.43
2023-03-27T06:04:09.676Z,0.50
2023-03-27T06:06:37.848Z,1.13
2023-03-27T06:09:06.374Z,0.80
2023-03-27T06:11:33.990Z,0.77
2023-03-27T06:14:01.719Z,0.73
2023-03-27T06:16:29.780Z,1.00
2023-03-27T06:18:57.579Z,1.90
2023-03-27T06:21:26.616Z,1.45
2023-03-27T06:23:56.439Z,1.25
2023-03-27T06:26:24.657Z,0.90
2023-03-27T06:28:52.253Z,1.15
2023-03-27T06:31:20.116Z,3.67
2023-03-27T06:33:47.968Z,2.40
2023-03-27T06:36:15.992Z,2.50
2023-03-27T06:38:45.868Z,3.20
2023-03-27T06:41:13.782Z,3.97
2023-03-27T06:43:41.396Z,1.20
2023-03-27T06:46:09.055Z,1.20
2023-03-27T06:48:36.851Z,1.90
2023-03-27T06:51:04.705Z,1.13
2023-03-27T06:53:37.285Z,1.33
2023-03-27T06:56:07.955Z,1.08
2023-03-27T06:58:35.815Z,1.02
2023-03-27T07:01:03.553Z,1.20
2023-03-27T07:03:31.481Z,0.97
2023-03-27T07:06:00.446Z,0.85
2023-03-27T07:08:28.889Z,0.90
2023-03-27T07:11:10.570Z,0.80
2023-03-27T07:13:41.195Z,1.00
2023-03-27T07:16:10.183Z,0.97
2023-03-27T07:18:37.897Z,1.10
2023-03-27T07:21:05.989Z,0.80
2023-03-27T07:23:33.676Z,1.02
2023-03-27T07:26:02.187Z,0.82
2023-03-27T07:28:29.822Z,1.23
2023-03-27T07:30:59.371Z,0.90
2023-03-27T07:33:28.157Z,0.77
2023-03-27T07:35:56.644Z,0.68
2023-03-27T07:38:24.794Z,1.77
2023-03-27T07:40:52.551Z,0.90
2023-03-27T07:43:20.146Z,1.00
2023-03-27T07:45:49.766Z,0.85
2023-03-27T07:48:19.124Z,0.70
2023-03-27T07:50:47.726Z,1.02
2023-03-27T07:53:33.809Z,1.30
2023-03-27T07:56:02.547Z,1.00
2023-03-27T07:58:30.301Z,1.00
2023-03-27T08:01:02.134Z,0.88
2023-03-27T08:03:32.412Z,0.80
2023-03-27T08:06:01.261Z,0.80
2023-03-27T08:08:29.643Z,0.75
2023-03-27T08:10:58.081Z,1.25
2023-03-27T08:13:26.244Z,1.10
2023-03-27T08:16:03.882Z,1.00
2023-03-27T08:18:32.919Z,1.30
2023-03-27T08:21:03.517Z,0.93
2023-03-27T08:23:32.839Z,1.08
2023-03-27T08:26:01.401Z,1.00
2023-03-27T08:28:29.986Z,1.23
2023-03-27T08:31:02.614Z,0.90
2023-03-27T08:33:32.147Z,0.90
2023-03-27T08:36:00.198Z,1.10
2023-03-27T08:38:29.469Z,1.40
2023-03-27T08:41:00.250Z,0.90
2023-03-27T08:43:31.440Z,0.87
2023-03-27T08:46:02.736Z,1.17
2023-03-27T08:48:36.782Z,1.33
2023-03-27T08:51:07.860Z,1.00
2023-03-27T08:53:42.885Z,0.70
2023-03-27T08:56:15.260Z,1.00
2023-03-27T08:58:43.857Z,0.93
2023-03-27T09:01:21.958Z,0.80
2023-03-27T09:03:58.149Z,0.57
2023-03-27T09:06:28.850Z,0.85
2023-03-27T09:09:05.169Z,0.83
2023-03-27T09:11:45.530Z,0.22
2023-03-27T09:14:21.897Z,0.50
2023-03-27T09:16:51.187Z,0.30
2023-03-27T09:19:32.654Z,0.20
2023-03-27T09:22:05.697Z,0.30
2023-03-27T09:24:36.733Z,0.60
2023-03-27T09:27:17.498Z,0.50
2023-03-27T09:29:47.109Z,0.43
2023-03-27T09:32:16.872Z,0.80
2023-03-27T09:34:48.196Z,0.70
2023-03-27T09:37:18.054Z,1.92
2023-03-27T09:39:51.626Z,2.75
2023-03-27T09:42:25.225Z,1.48
2023-03-27T09:44:57.172Z,0.30
2023-03-27T09:47:32.266Z,1.43
2023-03-27T09:50:14.495Z,0.32
2023-03-27T09:52:43.328Z,0.77
2023-03-27T09:55:25.346Z,0.40
2023-03-27T09:58:01.144Z,0.20
2023-03-27T10:00:32.315Z,0.10
2023-03-27T10:03:05.802Z,0.50
2023-03-27T10:05:35.331Z,0.30
2023-03-27T10:08:19.710Z,0.85
2023-03-27T10:10:58.193Z,0.40
2023-03-27T10:13:29.469Z,2.90
2023-03-27T10:16:00.714Z,2.53
2023-03-27T10:18:30.456Z,2.20
2023-03-27T10:21:02.895Z,0.50
2023-03-27T10:23:41.857Z,0.20
2023-03-27T10:26:12.826Z,6.40
2023-03-27T10:28:45.448Z,1.90
2023-03-27T10:31:28.383Z,0.52
2023-03-27T10:33:56.882Z,0.57
2023-03-27T10:36:27.694Z,0.10
2023-03-27T10:38:58.851Z,0.20
2023-03-27T10:41:29.315Z,0.22
2023-03-27T10:43:58.756Z,0.30
2023-03-27T10:46:28.836Z,0.25
2023-03-27T10:49:05.493Z,0.65
2023-03-27T10:51:46.735Z,0.20
2023-03-27T10:54:25.102Z,0.15
2023-03-27T10:57:02.410Z,0.20
2023-03-27T10:59:41.498Z,0.28
2023-03-27T11:02:16.153Z,0.20
2023-03-27T11:04:49.048Z,0.20
2023-03-27T11:07:23.396Z,0.20
2023-03-27T11:09:59.210Z,0.20
2023-03-27T11:12:29.919Z,0.10
2023-03-27T11:15:01.212Z,0.10
2023-03-27T11:17:32.712Z,0.10
2023-03-27T11:20:07.218Z,0.20
2023-03-27T11:22:42.228Z,0.20
2023-03-27T11:25:19.822Z,0.13
2023-03-27T11:27:56.095Z,0.20
2023-03-27T11:30:33.880Z,2.30
2023-03-27T11:33:27.644Z,0.30
2023-03-27T11:36:02.654Z,0.45
2023-03-27T11:38:36.379Z,0.20
2023-03-27T11:41:04.370Z,0.10
2023-03-27T11:43:32.860Z,0.20
2023-03-27T11:46:11.808Z,0.28
2023-03-27T11:48:56.801Z,0.30
2023-03-27T11:51:42.055Z,0.40
2023-03-27T11:54:29.175Z,0.35
2023-03-27T11:56:59.489Z,0.30
2023-03-27T11:59:42.816Z,0.40
2023-03-27T12:02:36.377Z,0.13
2023-03-27T12:05:11.196Z,0.28
2023-03-27T12:07:51.051Z,0.30
2023-03-27T12:10:29.231Z,0.20
2023-03-27T12:13:40.601Z,0.10
2023-03-27T12:16:20.309Z,0.40
2023-03-27T12:19:05.924Z,0.40
2023-03-27T12:21:54.065Z,0.65
2023-03-27T12:24:33.409Z,0.70
2023-03-27T12:27:26.120Z,1.30
2023-03-27T12:30:06.195Z,8.18
2023-03-27T12:32:49.638Z,1.88
2023-03-27T12:35:21.587Z,1.75
2023-03-27T12:37:56.681Z,0.47
2023-03-27T12:40:34.048Z,0.40
2023-03-27T12:43:31.566Z,0.60
2023-03-27T12:46:13.365Z,0.20
2023-03-27T12:48:50.654Z,0.20
2023-03-27T12:51:19.934Z,0.10
2023-03-27T12:53:50.614Z,0.10
2023-03-27T12:56:32.904Z,0.13
2023-03-27T12:59:01.061Z,0.10
2023-03-27T13:01:55.327Z,0.10
2023-03-27T13:04:50.637Z,0.30
2023-03-27T13:07:23.186Z,0.20
2023-03-27T13:10:03.905Z,0.13
2023-03-27T13:12:50.741Z,0.10
2023-03-27T13:15:36.118Z,0.43
2023-03-27T13:18:27.351Z,0.10
2023-03-27T13:21:05.919Z,0.10
2023-03-27T13:23:47.142Z,0.22
2023-03-27T13:26:31.045Z,0.30
2023-03-27T13:28:59.216Z,0.20
2023-03-27T13:32:02.585Z,0.20
2023-03-27T13:34:37.966Z,0.50
2023-03-27T13:37:49.178Z,0.25
2023-03-27T13:40:24.808Z,0.32
2023-03-27T13:42:55.861Z,0.40
2023-03-27T13:45:28.632Z,0.50
2023-03-27T13:48:41.350Z,0.82
2023-03-27T13:51:56.128Z,0.30
2023-03-27T13:54:56.378Z,0.28
2023-03-27T13:57:37.738Z,1.00
2023-03-27T14:00:27.975Z,0.20
2023-03-27T14:03:21.208Z,0.10
2023-03-27T14:06:10.480Z,0.50
2023-03-27T14:08:47.219Z,0.20
2023-03-27T14:11:31.484Z,0.30
2023-03-27T14:14:17.391Z,0.30
2023-03-27T14:17:19.592Z,0.50
2023-03-27T14:20:08.801Z,0.20
2023-03-27T14:22:41.238Z,0.63
2023-03-27T14:25:16.729Z,0.50
2023-03-27T14:27:49.839Z,0.30
2023-03-27T14:30:20.444Z,0.30
2023-03-27T14:32:49.409Z,0.22
2023-03-27T14:35:33.250Z,0.10
2023-03-27T14:38:03.612Z,0.20
2023-03-27T14:40:35.249Z,0.10
2023-03-27T14:43:04.004Z,0.20
2023-03-27T14:45:34.971Z,0.50
2023-03-27T14:48:06.386Z,0.80
2023-03-27T14:50:34.635Z,0.90
2023-03-27T14:53:10.032Z,0.67
2023-03-27T14:55:42.481Z,0.45
2023-03-27T14:58:14.841Z,0.70
2023-03-27T15:00:43.012Z,0.90
2023-03-27T15:03:29.653Z,1.30
2023-03-27T15:06:01.117Z,0.87
2023-03-27T15:08:33.837Z,1.17
2023-03-27T15:11:04.879Z,1.20
2023-03-27T15:13:36.742Z,0.90
2023-03-27T15:16:06.573Z,0.22
2023-03-27T15:18:39.815Z,0.30
2023-03-27T15:21:16.723Z,0.57
2023-03-27T15:23:54.170Z,0.40
2023-03-27T15:26:26.896Z,0.40
2023-03-27T15:29:02.086Z,0.30
2023-03-27T15:31:30.189Z,0.57
2023-03-27T15:34:03.609Z,0.80
2023-03-27T15:36:35.008Z,0.50
2023-03-27T15:39:05.365Z,0.30
2023-03-27T15:41:42.245Z,0.20
2023-03-27T15:44:13.313Z,0.53
2023-03-27T15:46:55.827Z,0.38
2023-03-27T15:49:27.989Z,0.32
2023-03-27T15:51:56.437Z,0.50
2023-03-27T15:54:33.090Z,0.40
2023-03-27T15:57:10.169Z,0.20
2023-03-27T15:59:52.797Z,1.75
2023-03-27T16:02:22.680Z,3.50
2023-03-27T16:04:53.839Z,2.00
2023-03-27T16:07:24.287Z,2.30
2023-03-27T16:09:55.434Z,1.33
2023-03-27T16:12:30.954Z,3.75
2023-03-27T16:15:00.392Z,1.75
2023-03-27T16:17:34.259Z,2.55
2023-03-27T16:20:08.222Z,2.63
2023-03-27T16:22:38.099Z,0.50
2023-03-27T16:25:08.955Z,0.80
2023-03-27T16:27:41.065Z,0.63
2023-03-27T16:30:20.953Z,0.85
2023-03-27T16:32:48.764Z,1.30
2023-03-27T16:35:17.151Z,1.63
2023-03-27T16:37:44.934Z,2.90
2023-03-27T16:40:13.451Z,4.00
2023-03-27T16:42:42.975Z,4.10
2023-03-27T16:45:11.415Z,3.20
2023-03-27T16:47:39.217Z,2.10
2023-03-27T16:50:11.652Z,2.50
2023-03-27T16:52:40.162Z,2.42
2023-03-27T16:55:08.784Z,1.65
2023-03-27T16:57:37.122Z,0.70
2023-03-27T17:00:09.926Z,1.80
2023-03-27T17:02:37.882Z,1.13
2023-03-27T17:05:06.867Z,1.00
2023-03-27T17:07:34.806Z,0.80
2023-03-27T17:10:04.561Z,0.50
2023-03-27T17:12:32.318Z,0.70
2023-03-27T17:15:00.217Z,0.80
2023-03-27T17:17:30.405Z,0.90
2023-03-27T17:19:58.256Z,4.10
2023-03-27T17:22:26.574Z,4.75
2023-03-27T17:24:57.191Z,3.70
2023-03-27T17:27:26.869Z,2.72
2023-03-27T17:29:55.876Z,1.42
2023-03-27T17:32:24.012Z,0.57
2023-03-27T17:34:53.513Z,0.90
2023-03-27T17:37:22.144Z,1.10
2023-03-27T17:39:51.594Z,0.57
2023-03-27T17:42:19.299Z,1.70
2023-03-27T17:44:46.928Z,1.70
2023-03-27T17:47:14.878Z,3.38
2023-03-27T17:49:43.178Z,5.10
2023-03-27T17:52:13.348Z,5.25
2023-03-27T17:54:41.876Z,4.55
2023-03-27T17:57:09.504Z,3.85
2023-03-27T17:59:38.436Z,2.55
2023-03-27T18:02:07.376Z,3.10
2023-03-27T18:04:35.448Z,2.88
2023-03-27T18:07:03.260Z,3.15
2023-03-27T18:09:32.632Z,2.72
2023-03-27T18:12:00.228Z,3.20
2023-03-27T18:14:29.689Z,2.03
2023-03-27T18:16:57.307Z,2.20
2023-03-27T18:19:26.005Z,2.58
2023-03-27T18:21:53.700Z,4.78
2023-03-27T18:24:21.455Z,5.03
2023-03-27T18:26:50.579Z,6.47
2023-03-27T18:29:18.377Z,7.68
2023-03-27T18:31:46.033Z,7.85
2023-03-27T18:34:14.357Z,7.18
2023-03-27T18:36:42.380Z,6.93
2023-03-27T18:39:10.110Z,5.47
2023-03-27T18:41:39.595Z,5.28
2023-03-27T18:44:10.012Z,6.03
2023-03-27T18:46:37.700Z,7.03
2023-03-27T18:49:17.509Z,4.20
2023-03-27T18:51:51.629Z,4.13
2023-03-27T18:54:19.435Z,3.28
2023-03-27T18:56:47.343Z,3.20
2023-03-27T18:59:16.644Z,3.10
2023-03-27T19:01:44.715Z,3.83
2023-03-27T19:04:13.984Z,2.50
2023-03-27T19:06:42.721Z,2.67
2023-03-27T19:09:10.532Z,1.40
2023-03-27T19:11:41.399Z,0.70
2023-03-27T19:14:09.959Z,0.70
2023-03-27T19:16:39.250Z,0.70
2023-03-27T19:19:07.025Z,0.40
2023-03-27T19:21:34.581Z,0.35
2023-03-27T19:24:02.550Z,0.98
2023-03-27T19:26:30.326Z,0.63
2023-03-27T19:28:57.872Z,0.67
2023-03-27T19:31:27.326Z,0.82
2023-03-27T19:33:56.773Z,0.50
2023-03-27T19:36:25.577Z,0.45
2023-03-27T19:38:53.327Z,0.55
2023-03-27T19:41:21.265Z,0.30
2023-03-27T19:43:49.096Z,0.40
2023-03-27T19:46:16.998Z,0.30
2023-03-27T19:48:45.376Z,0.20
2023-03-27T19:51:14.442Z,0.25
2023-03-27T19:53:42.423Z,0.30
2023-03-27T19:56:10.133Z,0.30
2023-03-27T19:58:37.806Z,0.50
2023-03-27T20:01:07.144Z,0.38
2023-03-27T20:03:38.874Z,0.50
2023-03-27T20:06:11.925Z,0.40
2023-03-27T20:08:43.827Z,0.70
2023-03-27T20:11:11.677Z,0.75
2023-03-27T20:13:53.062Z,0.75
2023-03-27T20:16:24.162Z,1.10
2023-03-27T20:18:55.427Z,0.40
2023-03-27T20:21:24.550Z,0.60
2023-03-27T20:23:55.187Z,0.40
2023-03-27T20:26:23.914Z,0.50
2023-03-27T20:28:52.079Z,0.40
2023-03-27T20:31:20.676Z,0.63
2023-03-27T20:33:49.834Z,0.50
2023-03-27T20:36:19.897Z,0.50
2023-03-27T20:38:47.606Z,0.80
2023-03-27T20:41:16.762Z,0.55
2023-03-27T20:43:47.096Z,0.60
2023-03-27T20:46:15.110Z,0.32
2023-03-27T20:48:54.690Z,0.40
2023-03-27T20:51:24.682Z,0.60
2023-03-27T20:53:55.854Z,0.70
2023-03-27T20:56:26.321Z,0.30
2023-03-27T20:58:54.079Z,0.47
2023-03-27T21:01:27.961Z,0.43
2023-03-27T21:03:58.354Z,0.68
2023-03-27T21:06:26.550Z,0.65
2023-03-27T21:08:54.466Z,0.70
2023-03-27T21:11:22.105Z,0.70
2023-03-27T21:13:51.278Z,1.00
2023-03-27T21:16:20.691Z,0.70
2023-03-27T21:18:48.344Z,0.60
2023-03-27T21:21:16.010Z,0.20
2023-03-27T21:23:44.204Z,0.60
2023-03-27T21:26:11.834Z,0.45
2023-03-27T21:28:39.503Z,0.40
2023-03-27T21:31:10.205Z,0.40
2023-03-27T21:33:39.004Z,2.10
2023-03-27T21:36:08.217Z,4.10
2023-03-27T21:38:36.093Z,1.25
2023-03-27T21:41:04.412Z,1.92
2023-03-27T21:43:32.717Z,2.67
2023-03-27T21:46:03.392Z,6.30
2023-03-27T21:48:32.884Z,2.38
2023-03-27T21:51:01.000Z,1.88
2023-03-27T21:53:28.730Z,2.08
2023-03-27T21:55:56.822Z,3.22
2023-03-27T21:58:24.984Z,5.77
2023-03-27T22:00:53.208Z,2.15
2023-03-27T22:03:20.804Z,1.02
2023-03-27T22:06:01.031Z,0.43
2023-03-27T22:08:38.787Z,1.35
2023-03-27T22:11:07.088Z,0.80
2023-03-27T22:13:36.049Z,0.70
2023-03-27T22:16:08.929Z,0.60
2023-03-27T22:18:36.800Z,0.90
2023-03-27T22:21:15.589Z,1.50
2023-03-27T22:23:43.810Z,1.20
2023-03-27T22:26:11.815Z,1.45
2023-03-27T22:28:39.559Z,0.55
2023-03-27T22:31:08.123Z,0.57
2023-03-27T22:33:35.987Z,0.40
2023-03-27T22:36:04.101Z,0.40
2023-03-27T22:38:34.028Z,0.80
2023-03-27T22:41:01.693Z,0.63
2023-03-27T22:43:30.344Z,0.35
2023-03-27T22:46:04.628Z,0.50
2023-03-27T22:48:32.332Z,0.77
2023-03-27T22:51:00.359Z,0.50
2023-03-27T22:53:28.805Z,0.63
2023-03-27T22:55:58.234Z,0.55
2023-03-27T22:58:26.748Z,0.65
2023-03-27T23:00:55.832Z,0.40
2023-03-27T23:03:25.066Z,0.75
2023-03-27T23:05:54.430Z,0.68
2023-03-27T23:08:25.001Z,0.85
2023-03-27T23:10:57.486Z,1.00
2023-03-27T23:13:25.754Z,0.63
2023-03-27T23:15:53.522Z,0.75
2023-03-27T23:18:24.671Z,0.98
2023-03-27T23:20:56.344Z,1.05
2023-03-27T23:23:24.633Z,1.10
2023-03-27T23:25:52.323Z,0.80
2023-03-27T23:28:21.676Z,1.27
2023-03-27T23:30:55.866Z,1.10
2023-03-27T23:33:25.452Z,1.00
2023-03-27T23:35:54.649Z,1.10
2023-03-27T23:38:22.529Z,1.13
2023-03-27T23:40:56.498Z,1.05
2023-03-27T23:43:27.602Z,1.10
2023-03-27T23:45:56.679Z,1.30
2023-03-27T23:48:24.751Z,0.95
2023-03-27T23:50:53.559Z,1.20
2023-03-27T23:53:22.115Z,0.77
2023-03-27T23:55:49.904Z,1.05
2023-03-27T23:58:17.760Z,1.10
